Time;durP1;ratioP1;P1;durP2;ratioP2;P2;SDS_P1;SDS_P2;PMS_P1;PMS_P2;Temp;Humidity;BMP_temperature;BMP_pressure;BME280_temperature;BME280_humidity;BME280_pressure;Samples;Min_cycle;Max_cycle;Signal;HPM_P1;HPM_P2
2023/08/12 00:00:07;;;;;;;;;;;;;;;23.44;56.12;99939.19;342386;28;1167;-76
2023/08/12 00:00:17;;;;;;;;;;;;;;;23.45;56.14;99946.22;336979;29;1487;-76
2023/08/12 00:00:27;;;;;;;;;;;;;;;23.45;55.65;99940.88;338221;29;1597;-76
2023/08/12 00:00:38;;;;;;;;;;;;;;;23.47;55.97;99940.75;334801;29;2657;-76
2023/08/12 00:00:48;;;;;;;;;;;;;;;23.47;56.09;99944.28;332328;29;4683;-76
2023/08/12 00:00:58;;;;;;;;;;;;;;;23.46;55.97;99945.25;334117;29;5159;-76
2023/08/12 00:01:08;;;;;;;;;;;;;;;23.46;56.12;99945.25;334829;29;2989;-76
2023/08/12 00:01:21;;;;;;;;;;;;;;;23.46;55.80;99945.25;333364;29;2248;-76
2023/08/12 00:01:31;;;;;;;;;;;;;;;23.48;55.84;99942.44;331763;29;1537;-76
2023/08/12 00:01:41;;;;;;;;;;;;;;;23.47;55.87;99938.09;331882;29;1309;-76
2023/08/12 00:01:51;;;;;;;;;;;;;;;23.48;56.06;99948.63;329998;29;1308;-76
2023/08/12 00:02:01;;;;;;;;;;;;;;;23.49;56.10;99942.31;332762;29;1239;-76
2023/08/12 00:02:12;;;;;;;;;;;;;;;23.48;56.12;99937.94;331219;29;954;-76
2023/08/12 00:02:22;;;;;;;;;;;;;;;23.50;55.82;99951.16;334357;29;1504;-76
2023/08/12 00:02:32;;;;;;;;;;;;;;;23.49;56.19;99947.66;335023;29;1880;-76
2023/08/12 00:02:43;;;;;;;;;;;;;;;23.50;56.17;99944.00;333182;29;1214;-76
2023/08/12 00:02:53;;;;;;;;;;;;;;;23.50;56.04;99941.31;330177;29;2407;-76
2023/08/12 00:03:03;;;;;;;;;;;;;;;23.51;56.02;99937.66;327765;29;2366;-76
2023/08/12 00:03:14;;;;;;;;;;;;;;;23.52;55.80;99943.88;330611;29;945;-77
2023/08/12 00:03:24;;;;;;;;;;;;;;;23.51;56.12;99943.00;331079;29;2780;-77
2023/08/12 00:03:34;;;;;;;;;;;;;;;23.50;56.23;99946.66;329064;30;2767;-76
2023/08/12 00:03:45;;;;;;;;;;;;;;;23.48;56.23;99948.63;328300;30;924;-76
2023/08/12 00:03:55;;;;;;;;;;;;;;;23.46;56.41;99945.25;328633;30;1990;-76
2023/08/12 00:04:05;;;;;;;;;;;;;;;23.46;56.33;99947.94;325321;30;1506;-76
2023/08/12 00:04:16;;;;;;;;;;;;;;;23.46;56.04;99939.91;325656;30;1218;-77
2023/08/12 00:04:26;;;;;;;;;;;;;;;23.47;56.52;99948.78;322215;30;836;-76
2023/08/12 00:04:36;;;;;;;;;;;;;;;23.47;56.43;99944.28;321073;30;2355;-76
2023/08/12 00:04:47;;;;;;;;;;;;;;;23.47;56.42;99938.94;321788;30;2771;-76
2023/08/12 00:04:57;;;;;;;;;;;;;;;23.47;56.20;99944.28;323367;30;1236;-76
2023/08/12 00:05:08;;;;;;;;;;;;;;;23.47;56.36;99941.59;323811;30;3539;-76
2023/08/12 00:05:18;;;;;;;;;;;;;;;23.46;55.96;99944.41;324137;30;3471;-75
2023/08/12 00:05:29;;;;;;;;;;;;;;;23.45;56.36;99943.56;322195;30;889;-75
2023/08/12 00:05:39;;;;;;;;;;;;;;;23.45;56.35;99943.56;316588;31;3699;-75
2023/08/12 00:05:50;;;;;;;;;;;;;;;23.46;56.26;99939.06;316743;30;3487;-76
2023/08/12 00:06:01;;;;;;;;;;;;;;;23.45;56.16;99948.91;318588;31;1198;-76
2023/08/12 00:06:11;;;;;;;;;;;;;;;23.45;56.52;99948.06;315130;31;1397;-76
2023/08/12 00:06:22;;;;;;;;;;;;;;;23.44;56.02;99941.88;312647;31;2176;-76
2023/08/12 00:06:32;;;;;;;;;;;;;;;23.43;56.21;99942.84;309366;31;2495;-76
2023/08/12 00:06:42;;;;;;;;;;;;;;;23.42;56.46;99943.84;312981;31;1370;-76
2023/08/12 00:06:52;;;;;;;;;;;;;;;23.43;56.54;99944.69;311705;31;3396;-76
2023/08/12 00:07:03;;;;;;;;;;;;;;;23.43;56.54;99944.69;311751;31;3903;-76
2023/08/12 00:07:13;;;;;;;;;;;;;;;23.43;56.33;99945.53;314144;31;752;-76
2023/08/12 00:07:24;;;;;;;;;;;;;;;23.44;56.16;99943.69;307367;31;5184;-76
2023/08/12 00:07:34;;;;;;;;;;;;;;;23.43;56.36;99940.19;307624;31;4956;-76
2023/08/12 00:07:44;;;;;;;;;;;;;;;23.43;56.60;99942.00;309682;31;1323;-76
2023/08/12 00:07:54;;;;;;;;;;;;;;;23.43;56.49;99945.53;308993;31;4548;-76
2023/08/12 00:08:05;;;;;;;;;;;;;;;23.43;56.38;99939.34;310073;31;4779;-76
2023/08/12 00:08:15;;;;;;;;;;;;;;;23.42;56.47;99938.50;310626;31;1239;-76
2023/08/12 00:08:25;;;;;;;;;;;;;;;23.42;56.34;99937.66;307736;31;3497;-76
2023/08/12 00:08:35;;;;;;;;;;;;;;;23.42;56.35;99943.84;307468;31;2910;-76
2023/08/12 00:08:45;;;;;;;;;;;;;;;23.42;56.22;99937.66;307608;32;1266;-76
2023/08/12 00:08:56;;;;;;;;;;;;;;;23.41;56.40;99934.13;300861;32;3168;-76
2023/08/12 00:09:07;;;;;;;;;;;;;;;23.41;56.22;99939.47;298530;32;5212;-76
2023/08/12 00:09:18;;;;;;;;;;;;;;;23.41;56.38;99936.78;296136;33;5554;-76
2023/08/12 00:09:28;;;;;;;;;;;;;;;23.42;56.23;99938.50;296601;33;2146;-75
2023/08/12 00:09:38;;;;;;;;;;;;;;;23.41;56.49;99938.63;294768;33;6415;-75
2023/08/12 00:09:49;;;;;;;;;;;;;;;23.41;56.23;99942.16;294482;33;7308;-75
2023/08/12 00:10:00;;;;;;;;;;;;;;;23.41;56.32;99944.81;292143;33;4824;-75
2023/08/12 00:10:11;;;;;;;;;;;;;;;23.41;56.22;99941.28;292518;33;6121;-75
2023/08/12 00:10:21;;;;;;;;;;;;;;;23.40;56.54;99935.09;292008;33;6883;-75
2023/08/12 00:10:31;;;;;;;;;;;;;;;23.40;56.48;99940.44;289806;34;5213;-75
2023/08/12 00:10:42;;;;;;;;;;;;;;;23.41;56.44;99942.16;288422;34;1467;-75
2023/08/12 00:10:52;;;;;;;;;;;;;;;23.41;56.72;99939.47;284816;34;4518;-75
2023/08/12 00:11:02;;;;;;;;;;;;;;;23.39;56.73;99938.78;284576;34;5724;-75
2023/08/12 00:11:12;;;;;;;;;;;;;;;23.38;56.74;99938.94;286375;34;1204;-75
2023/08/12 00:11:22;;;;;;;;;;;;;;;23.38;56.73;99942.44;286981;34;6583;-76
2023/08/12 00:11:33;;;;;;;;;;;;;;;23.38;56.75;99938.94;285717;34;7798;-76
2023/08/12 00:11:44;;;;;;;;;;;;;;;23.38;56.54;99931.75;283195;34;1366;-75
2023/08/12 00:11:54;;;;;;;;;;;;;;;23.39;56.56;99936.13;283684;34;8597;-75
2023/08/12 00:12:04;;;;;;;;;;;;;;;23.39;56.52;99938.78;281611;34;9679;-75
2023/08/12 00:12:14;;;;;;;;;;;;;;;23.38;56.42;99938.94;279277;35;803;-75
2023/08/12 00:12:24;;;;;;;;;;;;;;;23.38;56.58;99942.44;276106;35;9078;-75
2023/08/12 00:14:38;;;;;;;;;;;;;;;23.37;56.62;99932.75;2502232;27;19933;-75
2023/08/12 00:14:49;;;;;;;;;;;;;;;23.38;56.67;99941.59;354554;27;1313;-75
2023/08/12 00:14:59;;;;;;;;;;;;;;;23.38;56.83;99937.09;354672;27;1315;-75
2023/08/12 00:15:10;;;;;;;;;;;;;;;23.37;56.66;99940.75;353064;28;1222;-75
2023/08/12 00:15:20;;;;;;;;;;;;;;;23.38;56.74;99934.44;351803;28;917;-75
2023/08/12 00:15:30;;;;;;;;;;;;;;;23.36;56.81;99928.38;348923;28;1440;-75
2023/08/12 00:15:41;;;;;;;;;;;;;;;23.37;56.86;99937.22;349181;28;863;-75
2023/08/12 00:15:51;;;;;;;;;;;;;;;23.36;56.45;99933.72;350566;28;907;-75
2023/08/12 00:16:02;;;;;;;;;;;;;;;23.36;56.55;99936.41;350929;28;1262;-76
2023/08/12 00:16:12;;;;;;;;;;;;;;;23.37;56.84;99927.41;350288;28;1259;-76
2023/08/12 00:16:22;;;;;;;;;;;;;;;23.37;56.58;99940.75;347637;28;1369;-76
2023/08/12 00:16:32;;;;;;;;;;;;;;;23.36;56.77;99930.22;348144;28;1250;-76
2023/08/12 00:16:42;;;;;;;;;;;;;;;23.35;56.62;99937.38;346250;28;1231;-76
2023/08/12 00:16:53;;;;;;;;;;;;;;;23.36;56.52;99940.88;344949;28;908;-76
2023/08/12 00:17:03;;;;;;;;;;;;;;;23.37;56.38;99935.41;346272;28;885;-76
2023/08/12 00:17:13;;;;;;;;;;;;;;;23.36;56.53;99936.41;346170;28;1343;-76
2023/08/12 00:17:23;;;;;;;;;;;;;;;23.37;56.75;99940.75;346221;28;1420;-76
2023/08/12 00:17:34;;;;;;;;;;;;;;;23.36;56.52;99933.72;347564;28;1367;-76
2023/08/12 00:17:44;;;;;;;;;;;;;;;23.36;56.76;99932.88;346325;28;1317;-76
2023/08/12 00:17:55;;;;;;;;;;;;;;;23.35;56.59;99937.38;344704;28;1232;-76
2023/08/12 00:18:06;;;;;;;;;;;;;;;23.34;56.58;99937.50;344620;28;900;-76
2023/08/12 00:18:17;;;;;;;;;;;;;;;23.33;56.48;99934.00;345204;28;1530;-76
2023/08/12 00:18:27;;;;;;;;;;;;;;;23.33;56.62;99938.50;346269;28;1035;-76
2023/08/12 00:18:37;;;;;;;;;;;;;;;23.33;56.58;99933.16;346192;28;1303;-76
2023/08/12 00:18:47;;;;;;;;;;;;;;;23.32;56.45;99937.66;344805;28;1220;-77
2023/08/12 00:18:58;;;;;;;;;;;;;;;23.32;56.38;99940.31;345094;28;935;-76
2023/08/12 00:19:08;;;;;;;;;;;;;;;23.33;56.44;99939.34;348080;28;3503;-75
2023/08/12 00:19:18;;;;;;;;;;;;;;;23.32;56.38;99932.31;347601;28;4793;-75
2023/08/12 00:19:29;;;;;;;;;;;;;;;23.31;56.81;99927.94;345987;28;5247;-75
2023/08/12 00:19:39;;;;;;;;;;;;;;;23.30;56.72;99939.59;346310;28;1585;-75
2023/08/12 00:19:49;;;;;;;;;;;;;;;23.29;56.74;99927.22;348863;28;5296;-76
2023/08/12 00:19:59;;;;;;;;;;;;;;;23.29;56.32;99937.06;350248;28;1274;-76
2023/08/12 00:20:10;;;;;;;;;;;;;;;23.28;56.71;99938.91;349023;28;842;-76
2023/08/12 00:20:21;;;;;;;;;;;;;;;23.30;56.59;99938.75;349113;28;884;-76
2023/08/12 00:20:31;;;;;;;;;;;;;;;23.28;56.32;99936.22;347480;28;1299;-76
2023/08/12 00:20:42;;;;;;;;;;;;;;;23.28;56.57;99935.38;346337;28;1208;-76
2023/08/12 00:20:53;;;;;;;;;;;;;;;23.26;56.34;99937.34;344820;28;1054;-76
2023/08/12 00:21:06;;;;;;;;;;;;;;;23.25;56.85;99930.31;341989;28;1258;-76
2023/08/12 00:21:16;;;;;;;;;;;;;;;23.24;56.43;99937.47;343144;28;1179;-76
2023/08/12 00:21:27;;;;;;;;;;;;;;;23.25;56.79;99938.31;342283;28;1341;-76
2023/08/12 00:21:37;;;;;;;;;;;;;;;23.26;56.57;99932.84;342296;28;1321;-76
2023/08/12 00:21:47;;;;;;;;;;;;;;;23.25;56.79;99936.50;342333;28;947;-76
2023/08/12 00:21:57;;;;;;;;;;;;;;;23.26;56.39;99932.84;343530;28;1213;-76
2023/08/12 00:22:08;;;;;;;;;;;;;;;23.27;56.42;99931.88;343495;28;1180;-76
2023/08/12 00:22:18;;;;;;;;;;;;;;;23.28;56.47;99935.38;343483;28;941;-76
2023/08/12 00:22:28;;;;;;;;;;;;;;;23.28;56.49;99930.88;343343;28;1329;-76
2023/08/12 00:22:38;;;;;;;;;;;;;;;23.29;56.84;99937.91;341238;28;1537;-76
2023/08/12 00:22:49;;;;;;;;;;;;;;;23.30;56.51;99933.41;344866;28;1510;-76
2023/08/12 00:22:59;;;;;;;;;;;;;;;23.31;56.47;99932.44;346136;28;1174;-76
2023/08/12 00:23:09;;;;;;;;;;;;;;;23.31;56.44;99925.25;342210;28;1597;-76
2023/08/12 00:23:19;;;;;;;;;;;;;;;23.32;56.72;99934.13;339347;29;1691;-76
2023/08/12 00:23:30;;;;;;;;;;;;;;;23.30;56.50;99939.59;340079;28;1227;-76
2023/08/12 00:23:40;;;;;;;;;;;;;;;23.30;56.34;99928.91;340987;29;909;-76
2023/08/12 00:23:50;;;;;;;;;;;;;;;23.30;56.59;99934.25;342211;28;951;-76
2023/08/12 00:24:01;;;;;;;;;;;;;;;23.30;56.91;99934.25;342188;28;739;-76
2023/08/12 00:24:11;;;;;;;;;;;;;;;23.29;56.49;99927.22;340557;29;1145;-76
2023/08/12 00:24:21;;;;;;;;;;;;;;;23.29;56.46;99932.56;338446;29;1723;-76
2023/08/12 00:24:31;;;;;;;;;;;;;;;23.30;56.79;99930.75;335249;29;1388;-76
2023/08/12 00:24:42;;;;;;;;;;;;;;;23.29;56.49;99935.25;333244;29;738;-76
2023/08/12 00:24:52;;;;;;;;;;;;;;;23.30;56.88;99933.41;331400;29;1963;-76
2023/08/12 00:25:02;;;;;;;;;;;;;;;23.28;56.51;99938.91;332155;29;1838;-76
2023/08/12 00:25:13;;;;;;;;;;;;;;;23.29;56.92;99935.25;330232;29;1995;-76
2023/08/12 00:25:23;;;;;;;;;;;;;;;23.29;56.79;99931.72;328255;30;859;-76
2023/08/12 00:25:33;;;;;;;;;;;;;;;23.30;56.55;99928.06;329404;29;2100;-76
2023/08/12 00:25:43;;;;;;;;;;;;;;;23.29;56.69;99932.56;329284;29;1679;-76
2023/08/12 00:25:57;;;;;;;;;;;;;;;23.30;56.77;99933.41;328561;30;1279;-76
2023/08/12 00:26:08;;;;;;;;;;;;;;;23.30;56.94;99939.59;329284;30;883;-76
2023/08/12 00:26:18;;;;;;;;;;;;;;;23.30;56.76;99936.94;328082;30;1252;-76
2023/08/12 00:26:28;;;;;;;;;;;;;;;23.30;56.81;99936.94;327169;29;1776;-76
2023/08/12 00:26:38;;;;;;;;;;;;;;;23.31;56.91;99929.75;330705;29;815;-76
2023/08/12 00:26:49;;;;;;;;;;;;;;;23.31;56.74;99933.28;329767;29;1976;-76
2023/08/12 00:26:59;;;;;;;;;;;;;;;23.32;57.07;99929.63;325846;29;2455;-75
2023/08/12 00:27:09;;;;;;;;;;;;;;;23.32;56.89;99934.13;326931;30;1349;-75
2023/08/12 00:27:20;;;;;;;;;;;;;;;23.32;56.83;99937.66;326629;30;2500;-76
2023/08/12 00:27:30;;;;;;;;;;;;;;;23.32;56.79;99926.97;327081;30;2693;-76
2023/08/12 00:27:40;;;;;;;;;;;;;;;23.30;57.08;99930.75;329171;30;1041;-76
2023/08/12 00:27:50;;;;;;;;;;;;;;;23.30;56.95;99934.25;323624;30;2625;-76
2023/08/12 00:28:01;;;;;;;;;;;;;;;23.29;56.68;99932.56;323946;30;2000;-76
2023/08/12 00:28:12;;;;;;;;;;;;;;;23.29;56.80;99934.41;327320;30;1498;-76
2023/08/12 00:28:22;;;;;;;;;;;;;;;23.28;56.89;99927.38;323597;30;2631;-76
2023/08/12 00:28:33;;;;;;;;;;;;;;;23.28;57.10;99935.38;322920;30;5638;-75
2023/08/12 00:28:43;;;;;;;;;;;;;;;23.28;56.98;99933.56;326376;30;3056;-76
2023/08/12 00:28:53;;;;;;;;;;;;;;;23.28;56.95;99930.88;326975;30;943;-76
2023/08/12 00:29:04;;;;;;;;;;;;;;;23.28;56.70;99933.56;319975;30;5130;-76
2023/08/12 00:29:14;;;;;;;;;;;;;;;23.28;57.14;99936.22;318312;30;3461;-76
2023/08/12 00:29:24;;;;;;;;;;;;;;;23.28;57.19;99930.88;320968;30;1039;-76
2023/08/12 00:29:35;;;;;;;;;;;;;;;23.27;57.12;99931.88;322966;30;3341;-76
2023/08/12 00:29:45;;;;;;;;;;;;;;;23.28;56.88;99938.91;324166;30;3572;-75
2023/08/12 00:29:55;;;;;;;;;;;;;;;23.28;56.83;99930.03;320015;30;1355;-75
2023/08/12 00:30:06;;;;;;;;;;;;;;;23.29;56.78;99937.06;318580;30;3340;-75
2023/08/12 00:30:16;;;;;;;;;;;;;;;23.29;56.89;99932.56;314223;31;2447;-75
2023/08/12 00:30:26;;;;;;;;;;;;;;;23.29;56.75;99927.22;316283;31;1047;-75
2023/08/12 00:30:36;;;;;;;;;;;;;;;23.28;56.57;99935.38;318148;31;2185;-75
2023/08/12 00:30:47;;;;;;;;;;;;;;;23.27;56.54;99934.53;319532;30;2888;-75
2023/08/12 00:30:58;;;;;;;;;;;;;;;23.27;56.88;99934.53;320354;30;3682;-76
2023/08/12 00:31:08;;;;;;;;;;;;;;;23.22;57.04;99931.41;316286;31;1422;-76
2023/08/12 00:31:18;;;;;;;;;;;;;;;23.22;56.98;99932.25;316661;31;4010;-76
2023/08/12 00:31:29;;;;;;;;;;;;;;;23.22;57.10;99931.41;313519;31;4555;-76
2023/08/12 00:31:39;;;;;;;;;;;;;;;23.21;56.86;99929.72;314352;31;1855;-75
2023/08/12 00:31:49;;;;;;;;;;;;;;;23.20;56.61;99933.38;314918;31;4388;-75
2023/08/12 00:31:59;;;;;;;;;;;;;;;23.20;56.74;99934.22;314507;31;4621;-75
2023/08/12 00:32:09;;;;;;;;;;;;;;;23.18;56.79;99930.84;312992;31;1625;-75
2023/08/12 00:32:20;;;;;;;;;;;;;;;23.17;57.09;99933.66;309882;31;4625;-75
2023/08/12 00:32:30;;;;;;;;;;;;;;;23.17;56.90;99933.66;311756;31;3389;-75
2023/08/12 00:32:40;;;;;;;;;;;;;;;23.16;56.81;99930.13;313144;31;788;-75
2023/08/12 00:32:50;;;;;;;;;;;;;;;23.15;57.04;99936.44;308774;31;3273;-75
2023/08/12 00:33:01;;;;;;;;;;;;;;;23.16;56.90;99929.28;308961;31;4106;-75
2023/08/12 00:33:11;;;;;;;;;;;;;;;23.16;56.85;99930.13;310635;31;1342;-77
2023/08/12 00:33:21;;;;;;;;;;;;;;;23.16;56.88;99929.28;308931;31;5192;-76
2023/08/12 00:33:31;;;;;;;;;;;;;;;23.13;57.08;99925.06;307742;31;6135;-76
2023/08/12 00:33:42;;;;;;;;;;;;;;;23.14;57.02;99929.41;306492;32;722;-76
2023/08/12 00:33:52;;;;;;;;;;;;;;;23.13;57.18;99932.22;306588;32;6582;-76
2023/08/12 00:34:02;;;;;;;;;;;;;;;23.13;57.12;99932.22;306764;32;6213;-76
2023/08/12 00:34:12;;;;;;;;;;;;;;;23.14;56.89;99939.25;305216;32;1234;-76
2023/08/12 00:34:23;;;;;;;;;;;;;;;23.13;57.20;99926.88;300693;32;4489;-76
2023/08/12 00:34:33;;;;;;;;;;;;;;;23.12;57.31;99928.72;302644;32;6288;-76
2023/08/12 00:34:43;;;;;;;;;;;;;;;23.14;57.02;99941.94;302326;32;4619;-76
2023/08/12 00:34:53;;;;;;;;;;;;;;;23.13;56.80;99930.41;300380;32;1219;-76
2023/08/12 00:35:04;;;;;;;;;;;;;;;23.15;57.24;99930.25;297587;32;4495;-76
2023/08/12 00:35:15;;;;;;;;;;;;;;;23.13;56.77;99935.75;297836;32;6748;-75
2023/08/12 00:35:25;;;;;;;;;;;;;;;23.12;57.28;99930.53;299073;33;974;-75
2023/08/12 00:35:35;;;;;;;;;;;;;;;23.09;57.36;99925.47;294840;33;7167;-75
2023/08/12 00:35:45;;;;;;;;;;;;;;;23.10;57.32;99924.47;295873;32;8592;-75
2023/08/12 00:35:56;;;;;;;;;;;;;;;23.10;56.88;99936.00;300157;32;1277;-76
2023/08/12 00:36:06;;;;;;;;;;;;;;;23.11;57.19;99934.19;293440;33;8610;-76
2023/08/12 00:36:16;;;;;;;;;;;;;;;23.12;57.42;99933.19;291541;33;9169;-75
2023/08/12 00:36:26;;;;;;;;;;;;;;;23.12;57.37;99927.88;294265;33;795;-75
2023/08/12 00:36:37;;;;;;;;;;;;;;;23.13;57.01;99929.56;289988;33;8059;-75
2023/08/12 00:36:47;;;;;;;;;;;;;;;23.14;56.84;99931.25;292022;33;8506;-75
2023/08/12 00:36:57;;;;;;;;;;;;;;;23.12;57.10;99933.19;294700;33;1344;-76
2023/08/12 00:37:07;;;;;;;;;;;;;;;23.10;57.28;99932.50;289048;33;6424;-76
2023/08/12 00:37:17;;;;;;;;;;;;;;;23.11;57.23;99928.84;288493;33;6287;-76
2023/08/12 00:37:28;;;;;;;;;;;;;;;23.11;57.17;99934.19;289000;33;8261;-75
2023/08/12 00:37:38;;;;;;;;;;;;;;;23.10;57.11;99932.50;288285;34;2260;-75
2023/08/12 00:37:48;;;;;;;;;;;;;;;23.10;57.02;99928.00;284516;34;9353;-75
2023/08/12 00:37:59;;;;;;;;;;;;;;;23.10;57.10;99932.50;285100;34;11327;-75
2023/08/12 00:38:09;;;;;;;;;;;;;;;23.10;57.21;99932.50;287275;34;1504;-76
2023/08/12 00:40:06;;;;;;;;;;;;;;;23.12;57.36;99934.06;2501700;27;19936;-75
2023/08/12 00:40:16;;;;;;;;;;;;;;;23.10;57.05;99933.34;355969;27;1372;-75
2023/08/12 00:40:26;;;;;;;;;;;;;;;23.11;57.04;99934.19;353159;28;1409;-75
2023/08/12 00:40:36;;;;;;;;;;;;;;;23.11;56.89;99936.84;350408;28;1336;-76
2023/08/12 00:40:47;;;;;;;;;;;;;;;23.10;57.20;99929.81;348961;28;1231;-76
2023/08/12 00:40:58;;;;;;;;;;;;;;;23.11;57.18;99928.84;349106;28;876;-76
2023/08/12 00:41:08;;;;;;;;;;;;;;;23.10;57.39;99925.31;348708;28;1287;-76
2023/08/12 00:41:18;;;;;;;;;;;;;;;23.11;57.17;99928.84;350503;28;864;-76
2023/08/12 00:41:28;;;;;;;;;;;;;;;23.11;57.29;99927.00;348979;28;1122;-76
2023/08/12 00:41:38;;;;;;;;;;;;;;;23.12;57.23;99927.88;350460;28;1523;-76
2023/08/12 00:41:49;;;;;;;;;;;;;;;23.10;57.17;99933.34;350264;28;1433;-76
2023/08/12 00:41:59;;;;;;;;;;;;;;;23.10;57.23;99932.50;350924;28;1351;-76
2023/08/12 00:42:09;;;;;;;;;;;;;;;23.11;56.96;99928.84;351755;28;800;-76
2023/08/12 00:42:19;;;;;;;;;;;;;;;23.11;56.98;99928.84;351766;28;1045;-76
2023/08/12 00:42:29;;;;;;;;;;;;;;;23.12;57.46;99927.88;348934;28;1375;-76
2023/08/12 00:42:40;;;;;;;;;;;;;;;23.11;56.91;99929.69;349057;28;871;-76
2023/08/12 00:42:50;;;;;;;;;;;;;;;23.11;57.07;99936.84;349628;28;1813;-76
2023/08/12 00:43:00;;;;;;;;;;;;;;;23.11;56.96;99929.69;351825;28;1332;-76
2023/08/12 00:43:11;;;;;;;;;;;;;;;23.11;57.25;99934.19;353171;28;894;-76
2023/08/12 00:43:21;;;;;;;;;;;;;;;23.11;57.05;99931.50;351844;28;1057;-76
2023/08/12 00:43:31;;;;;;;;;;;;;;;23.12;57.21;99930.53;352748;28;1024;-76
2023/08/12 00:43:41;;;;;;;;;;;;;;;23.11;57.20;99934.19;353137;28;779;-76
2023/08/12 00:43:52;;;;;;;;;;;;;;;23.10;56.96;99933.34;351549;28;1427;-76
2023/08/12 00:44:02;;;;;;;;;;;;;;;23.10;57.04;99932.50;351818;28;1284;-76
2023/08/12 00:44:12;;;;;;;;;;;;;;;23.07;57.19;99928.25;350557;28;1304;-76
2023/08/12 00:44:22;;;;;;;;;;;;;;;23.06;57.06;99926.56;348075;28;1223;-76
2023/08/12 00:44:33;;;;;;;;;;;;;;;23.06;57.28;99923.06;348153;28;1385;-75
2023/08/12 00:44:43;;;;;;;;;;;;;;;23.05;57.56;99926.72;346170;28;1224;-75
2023/08/12 00:44:53;;;;;;;;;;;;;;;23.04;57.10;99919.69;346304;28;1207;-75
2023/08/12 00:45:05;;;;;;;;;;;;;;;23.04;57.61;99933.03;345030;28;825;-75
2023/08/12 00:45:15;;;;;;;;;;;;;;;23.05;57.34;99926.72;344704;28;1437;-75
2023/08/12 00:45:26;;;;;;;;;;;;;;;23.06;57.13;99926.56;347621;28;1411;-75
2023/08/12 00:45:36;;;;;;;;;;;;;;;23.06;57.17;99926.56;347705;28;951;-75
2023/08/12 00:45:46;;;;;;;;;;;;;;;23.07;57.36;99927.41;346207;28;1210;-75
2023/08/12 00:45:56;;;;;;;;;;;;;;;23.05;57.32;99922.22;345781;28;1464;-75
2023/08/12 00:46:07;;;;;;;;;;;;;;;23.07;57.08;99924.75;342169;28;1098;-75
2023/08/12 00:46:17;;;;;;;;;;;;;;;23.08;57.04;99937.13;345302;28;1260;-75
2023/08/12 00:46:27;;;;;;;;;;;;;;;23.08;57.17;99931.78;344676;28;1032;-75
2023/08/12 00:46:40;;;;;;;;;;;;;;;23.08;57.01;99929.09;345002;28;864;-76
2023/08/12 00:46:51;;;;;;;;;;;;;;;23.09;57.51;99928.13;341665;28;2623;-76
2023/08/12 00:47:01;;;;;;;;;;;;;;;23.08;57.34;99926.44;341187;28;4602;-76
2023/08/12 00:47:11;;;;;;;;;;;;;;;23.08;57.16;99937.13;343067;28;4925;-76
2023/08/12 00:47:21;;;;;;;;;;;;;;;23.08;57.29;99931.78;341928;28;5080;-76
2023/08/12 00:47:32;;;;;;;;;;;;;;;23.09;57.05;99930.81;341905;28;2929;-76
2023/08/12 00:47:42;;;;;;;;;;;;;;;23.08;57.20;99924.63;343794;28;865;-76
2023/08/12 00:47:52;;;;;;;;;;;;;;;23.09;57.52;99925.47;346226;28;1426;-76
2023/08/12 00:48:03;;;;;;;;;;;;;;;23.08;57.44;99937.97;344778;28;1322;-76
2023/08/12 00:48:13;;;;;;;;;;;;;;;23.08;57.26;99929.97;345580;28;1342;-76
2023/08/12 00:48:23;;;;;;;;;;;;;;;23.08;57.37;99923.78;346427;28;1524;-76
2023/08/12 00:48:33;;;;;;;;;;;;;;;23.07;57.45;99938.94;345435;28;1423;-76
2023/08/12 00:48:44;;;;;;;;;;;;;;;23.06;57.16;99928.41;344507;28;1534;-76
2023/08/12 00:48:54;;;;;;;;;;;;;;;23.05;57.51;99924.88;343509;28;1993;-76
2023/08/12 00:49:04;;;;;;;;;;;;;;;23.05;57.30;99935.56;340756;28;1268;-76
2023/08/12 00:49:14;;;;;;;;;;;;;;;23.06;57.38;99928.41;342052;28;1324;-75
2023/08/12 00:49:24;;;;;;;;;;;;;;;23.07;57.44;99935.44;342231;28;1114;-75
2023/08/12 00:49:36;;;;;;;;;;;;;;;23.06;57.41;99931.91;340789;29;1374;-75
2023/08/12 00:49:47;;;;;;;;;;;;;;;23.08;57.22;99923.78;337252;29;1323;-75
2023/08/12 00:49:58;;;;;;;;;;;;;;;23.07;56.95;99933.59;337340;29;1346;-75
2023/08/12 00:50:08;;;;;;;;;;;;;;;23.07;57.33;99927.41;335474;29;1383;-75
2023/08/12 00:50:19;;;;;;;;;;;;;;;23.07;57.08;99938.09;327964;29;1879;-75
2023/08/12 00:50:29;;;;;;;;;;;;;;;23.08;56.88;99939.78;329509;29;1915;-75
2023/08/12 00:50:39;;;;;;;;;;;;;;;23.05;57.18;99926.72;329437;30;1223;-75
2023/08/12 00:50:49;;;;;;;;;;;;;;;23.04;56.93;99933.88;335155;29;2018;-75
2023/08/12 00:50:59;;;;;;;;;;;;;;;23.04;57.11;99933.03;333484;29;2214;-76
2023/08/12 00:51:10;;;;;;;;;;;;;;;23.04;57.08;99930.34;331461;29;1692;-76
2023/08/12 00:51:20;;;;;;;;;;;;;;;23.03;57.24;99936.69;331986;29;871;-75
2023/08/12 00:51:30;;;;;;;;;;;;;;;23.02;57.30;99932.31;333764;29;1075;-76
2023/08/12 00:51:41;;;;;;;;;;;;;;;23.02;57.38;99926.97;335672;29;1367;-76
2023/08/12 00:51:51;;;;;;;;;;;;;;;23.02;57.33;99934.97;336927;29;1317;-76
2023/08/12 00:52:01;;;;;;;;;;;;;;;23.02;57.33;99932.31;333960;29;1592;-76
2023/08/12 00:52:12;;;;;;;;;;;;;;;23.01;57.34;99930.63;331359;29;1891;-76
2023/08/12 00:52:22;;;;;;;;;;;;;;;23.03;57.20;99936.69;332005;29;946;-76
2023/08/12 00:52:33;;;;;;;;;;;;;;;23.04;57.30;99927.69;329916;29;2441;-76
2023/08/12 00:52:43;;;;;;;;;;;;;;;23.03;57.23;99926.00;327758;29;2485;-76
2023/08/12 00:52:53;;;;;;;;;;;;;;;23.02;57.39;99924.31;326938;30;876;-76
2023/08/12 00:53:05;;;;;;;;;;;;;;;23.01;57.41;99934.13;329868;29;2651;-76
2023/08/12 00:53:16;;;;;;;;;;;;;;;23.00;57.18;99931.59;324989;30;2726;-76
2023/08/12 00:53:26;;;;;;;;;;;;;;;22.98;57.37;99925.53;326046;30;1920;-76
2023/08/12 00:53:37;;;;;;;;;;;;;;;22.98;57.42;99933.56;329027;30;1773;-75
2023/08/12 00:53:47;;;;;;;;;;;;;;;22.98;57.45;99928.22;326686;30;2288;-75
2023/08/12 00:53:57;;;;;;;;;;;;;;;22.96;57.62;99928.34;326257;30;2162;-75
2023/08/12 00:54:08;;;;;;;;;;;;;;;22.94;57.17;99932.16;325735;30;821;-75
2023/08/12 00:54:18;;;;;;;;;;;;;;;22.93;57.33;99930.47;328009;30;2381;-75
2023/08/12 00:54:28;;;;;;;;;;;;;;;22.89;57.67;99928.06;325218;30;2939;-75
2023/08/12 00:54:38;;;;;;;;;;;;;;;22.88;57.70;99929.03;323469;30;814;-75
2023/08/12 00:54:49;;;;;;;;;;;;;;;22.87;57.53;99932.69;319315;30;3487;-75
2023/08/12 00:54:59;;;;;;;;;;;;;;;22.87;57.68;99929.19;320802;30;3383;-75
2023/08/12 00:55:09;;;;;;;;;;;;;;;22.86;57.31;99925.66;322176;30;927;-75
2023/08/12 00:55:19;;;;;;;;;;;;;;;22.88;57.86;99929.03;321794;30;3529;-75
2023/08/12 00:55:29;;;;;;;;;;;;;;;22.87;57.38;99932.69;321866;30;3454;-75
2023/08/12 00:55:40;;;;;;;;;;;;;;;22.85;57.72;99925.78;321855;30;2440;-75
2023/08/12 00:55:50;;;;;;;;;;;;;;;22.84;57.56;99932.97;322196;30;1201;-75
2023/08/12 00:56:00;;;;;;;;;;;;;;;22.84;57.82;99922.28;319971;30;2273;-75
2023/08/12 00:56:10;;;;;;;;;;;;;;;22.85;58.05;99928.47;318110;30;5448;-75
2023/08/12 00:56:21;;;;;;;;;;;;;;;22.83;57.54;99925.94;320944;30;2883;-75
2023/08/12 00:56:31;;;;;;;;;;;;;;;22.82;57.72;99924.25;317934;30;3250;-75
2023/08/12 00:56:41;;;;;;;;;;;;;;;22.83;57.70;99925.94;317114;30;3985;-76
2023/08/12 00:56:52;;;;;;;;;;;;;;;22.85;57.91;99929.31;316511;31;803;-76
2023/08/12 00:57:02;;;;;;;;;;;;;;;22.86;58.03;99923.00;313774;31;4541;-76
2023/08/12 00:57:13;;;;;;;;;;;;;;;22.84;57.89;99927.63;314804;31;4280;-76
2023/08/12 00:57:23;;;;;;;;;;;;;;;22.86;57.89;99923.00;316383;31;822;-76
2023/08/12 00:57:33;;;;;;;;;;;;;;;22.86;57.65;99925.66;314714;31;4632;-76
2023/08/12 00:57:44;;;;;;;;;;;;;;;22.87;57.96;99932.69;312805;31;4717;-76
2023/08/12 00:57:54;;;;;;;;;;;;;;;22.85;58.03;99923.97;313751;31;1495;-75
2023/08/12 00:58:04;;;;;;;;;;;;;;;22.83;57.56;99928.59;315512;31;3397;-75
2023/08/12 00:58:14;;;;;;;;;;;;;;;22.84;57.61;99921.44;314371;31;3252;-75
2023/08/12 00:58:24;;;;;;;;;;;;;;;22.84;57.88;99916.94;312905;31;1816;-75
2023/08/12 00:58:35;;;;;;;;;;;;;;;22.85;58.00;99929.31;304313;32;1561;-75
2023/08/12 00:58:45;;;;;;;;;;;;;;;22.86;57.79;99923.00;303818;32;5219;-75
2023/08/12 00:58:56;;;;;;;;;;;;;;;22.85;57.99;99923.97;303515;32;5074;-75
2023/08/12 00:59:07;;;;;;;;;;;;;;;22.85;57.91;99926.66;306512;32;832;-75
2023/08/12 00:59:17;;;;;;;;;;;;;;;22.84;57.96;99922.28;302289;32;5760;-75
2023/08/12 00:59:27;;;;;;;;;;;;;;;22.85;57.74;99923.97;301497;32;6164;-75